createdAt,value
2022-09-03T00:01:03.924Z,5.00
2022-09-03T00:03:40.826Z,4.60
2022-09-03T00:06:17.789Z,7.80
2022-09-03T00:08:54.978Z,4.20
2022-09-03T00:11:47.678Z,3.50
2022-09-03T00:14:24.483Z,6.40
2022-09-03T00:16:57.921Z,3.50
2022-09-03T00:19:29.133Z,6.60
2022-09-03T00:22:03.035Z,6.10
2022-09-03T00:24:36.575Z,4.10
2022-09-03T00:27:08.181Z,5.70
2022-09-03T00:29:43.444Z,5.20
2022-09-03T00:32:18.865Z,6.90
2022-09-03T00:34:51.698Z,6.70
2022-09-03T00:37:18.833Z,7.40
2022-09-03T00:39:45.842Z,4.70
2022-09-03T00:42:17.924Z,5.10
2022-09-03T00:44:55.265Z,11.40
2022-09-03T00:47:42.010Z,10.80
2022-09-03T00:50:15.609Z,7.80
2022-09-03T00:52:58.603Z,6.50
2022-09-03T00:55:25.971Z,7.90
2022-09-03T00:58:10.173Z,10.50
2022-09-03T01:00:39.948Z,11.70
2022-09-03T01:03:12.916Z,8.30
2022-09-03T01:05:50.359Z,7.50
2022-09-03T01:08:32.307Z,9.60
2022-09-03T01:11:30.618Z,6.10
2022-09-03T01:14:11.085Z,6.10
2022-09-03T01:16:43.970Z,5.70
2022-09-03T01:19:27.657Z,5.70
2022-09-03T01:22:21.127Z,4.30
2022-09-03T01:25:12.842Z,3.30
2022-09-03T01:27:47.314Z,4.70
2022-09-03T01:30:18.813Z,4.60
2022-09-03T01:32:54.124Z,3.20
2022-09-03T01:35:37.307Z,5.70
2022-09-03T01:38:27.521Z,10.30
2022-09-03T01:41:33.332Z,6.30
2022-09-03T01:44:06.707Z,5.50
2022-09-03T01:46:40.326Z,4.40
2022-09-03T01:49:07.776Z,5.70
2022-09-03T01:51:34.635Z,7.40
2022-09-03T01:54:21.453Z,6.90
2022-09-03T01:57:35.470Z,6.40
2022-09-03T02:02:51.528Z,10.40
2022-09-03T02:05:23.400Z,8.90
2022-09-03T02:07:58.199Z,7.60
2022-09-03T02:10:30.516Z,8.20
2022-09-03T02:13:05.129Z,8.10
2022-09-03T02:15:34.786Z,8.80
2022-09-03T02:18:06.105Z,8.60
2022-09-03T02:20:33.798Z,10.50
2022-09-03T02:23:00.930Z,7.70
2022-09-03T02:25:37.999Z,7.50
2022-09-03T02:28:11.200Z,8.90
2022-09-03T02:30:44.720Z,9.10
2022-09-03T02:33:12.008Z,7.70
2022-09-03T02:35:40.791Z,7.50
2022-09-03T02:38:13.258Z,7.50
2022-09-03T02:40:40.067Z,6.70
2022-09-03T02:43:14.177Z,6.60
2022-09-03T02:45:48.237Z,5.80
2022-09-03T02:48:21.667Z,4.90
2022-09-03T02:50:48.550Z,7.00
2022-09-03T02:53:15.879Z,5.10
2022-09-03T02:55:42.729Z,5.60
2022-09-03T02:58:09.607Z,6.50
2022-09-03T03:00:37.410Z,6.30
2022-09-03T03:03:05.829Z,6.40
2022-09-03T03:05:44.176Z,4.40
2022-09-03T03:08:12.383Z,7.80
2022-09-03T03:10:39.152Z,9.40
2022-09-03T03:13:06.017Z,4.70
2022-09-03T03:15:32.863Z,5.50
2022-09-03T03:17:59.692Z,10.90
2022-09-03T03:20:26.510Z,6.20
2022-09-03T03:22:53.328Z,6.30
2022-09-03T03:25:20.309Z,5.00
2022-09-03T03:27:47.335Z,5.20
2022-09-03T03:30:14.733Z,8.00
2022-09-03T03:32:41.520Z,4.60
2022-09-03T03:35:08.783Z,5.80
2022-09-03T03:37:35.883Z,7.80
2022-09-03T03:40:03.448Z,6.00
2022-09-03T03:42:33.815Z,4.70
2022-09-03T03:45:02.643Z,6.50
2022-09-03T03:47:33.125Z,6.70
2022-09-03T03:50:00.174Z,8.30
2022-09-03T03:52:27.536Z,6.10
2022-09-03T03:54:55.505Z,3.50
2022-09-03T03:57:23.727Z,5.80
2022-09-03T03:59:51.127Z,8.00
2022-09-03T04:02:18.851Z,7.10
2022-09-03T04:04:45.994Z,5.80
2022-09-03T04:07:12.772Z,4.80
2022-09-03T04:09:39.636Z,5.00
2022-09-03T04:12:08.805Z,4.30
2022-09-03T04:14:35.906Z,6.00
2022-09-03T04:17:03.258Z,6.70
2022-09-03T04:19:30.382Z,4.70
2022-09-03T04:21:57.750Z,6.10
2022-09-03T04:24:24.551Z,5.10
2022-09-03T04:26:51.884Z,8.30
2022-09-03T04:29:18.855Z,4.50
2022-09-03T04:32:05.987Z,5.10
2022-09-03T04:34:32.787Z,9.60
2022-09-03T04:36:59.602Z,6.30
2022-09-03T04:39:26.600Z,9.30
2022-09-03T04:41:53.476Z,6.40
2022-09-03T04:44:20.323Z,7.90
2022-09-03T04:46:48.314Z,5.40
2022-09-03T04:49:15.219Z,7.10
2022-09-03T04:51:42.267Z,6.40
2022-09-03T04:54:10.353Z,7.50
2022-09-03T04:56:40.103Z,4.60
2022-09-03T04:59:09.222Z,4.50
2022-09-03T05:01:38.816Z,6.20
2022-09-03T05:04:07.606Z,7.30
2022-09-03T05:06:35.335Z,8.20
2022-09-03T05:09:02.547Z,5.90
2022-09-03T05:11:30.238Z,6.90
2022-09-03T05:13:59.443Z,6.20
2022-09-03T05:16:29.033Z,4.70
2022-09-03T05:18:59.094Z,7.10
2022-09-03T05:21:26.642Z,7.50
2022-09-03T05:23:53.566Z,7.30
2022-09-03T05:26:24.058Z,5.00
2022-09-03T05:28:59.151Z,6.20
2022-09-03T05:31:29.229Z,6.10
2022-09-03T05:33:59.840Z,5.40
2022-09-03T05:36:30.330Z,7.20
2022-09-03T05:38:59.079Z,8.90
2022-09-03T05:41:27.300Z,7.90
2022-09-03T05:43:56.074Z,6.80
2022-09-03T05:46:31.715Z,7.00
2022-09-03T05:49:01.444Z,6.90
2022-09-03T05:51:29.026Z,5.30
2022-09-03T05:53:56.090Z,8.90
2022-09-03T05:56:24.903Z,8.20
2022-09-03T05:58:54.274Z,5.90
2022-09-03T06:01:31.271Z,7.50
2022-09-03T06:04:00.796Z,7.70
2022-09-03T06:06:29.683Z,8.10
2022-09-03T06:08:58.938Z,4.80
2022-09-03T06:11:28.382Z,6.20
2022-09-03T06:13:56.699Z,6.70
2022-09-03T06:16:30.832Z,4.70
2022-09-03T06:19:00.555Z,9.40
2022-09-03T06:21:27.903Z,4.60
2022-09-03T06:23:59.699Z,5.60
2022-09-03T06:26:29.251Z,7.50
2022-09-03T06:28:57.640Z,5.80
2022-09-03T06:31:25.198Z,9.60
2022-09-03T06:33:54.724Z,3.80
2022-09-03T06:36:23.937Z,7.40
2022-09-03T06:38:53.611Z,5.00
2022-09-03T06:41:25.175Z,4.90
2022-09-03T06:43:54.879Z,5.10
2022-09-03T06:46:24.023Z,5.70
2022-09-03T06:48:51.927Z,4.90
2022-09-03T06:51:21.994Z,4.90
2022-09-03T06:53:51.681Z,6.40
2022-09-03T06:56:29.041Z,3.60
2022-09-03T06:58:58.098Z,5.40
2022-09-03T07:01:28.401Z,4.00
2022-09-03T07:03:57.901Z,4.60
2022-09-03T07:06:27.461Z,3.70
2022-09-03T07:08:55.816Z,6.40
2022-09-03T07:11:25.545Z,3.50
2022-09-03T07:13:53.797Z,2.10
2022-09-03T07:16:23.619Z,2.90
2022-09-03T07:18:51.500Z,3.00
2022-09-03T07:21:21.482Z,2.10
2022-09-03T07:23:49.574Z,2.80
2022-09-03T07:26:20.176Z,4.50
2022-09-03T07:28:48.926Z,2.70
2022-09-03T07:31:19.903Z,2.10
2022-09-03T07:33:47.576Z,3.90
2022-09-03T07:36:17.255Z,2.20
2022-09-03T07:38:45.895Z,7.70
2022-09-03T07:41:26.816Z,2.50
2022-09-03T07:43:55.582Z,3.00
2022-09-03T07:46:25.248Z,4.30
2022-09-03T07:48:54.920Z,2.90
2022-09-03T07:51:26.684Z,3.10
2022-09-03T07:53:56.333Z,3.10
2022-09-03T07:56:24.094Z,2.90
2022-09-03T07:58:51.044Z,2.50
2022-09-03T08:01:20.668Z,2.90
2022-09-03T08:03:49.988Z,4.80
2022-09-03T08:06:18.898Z,2.80
2022-09-03T08:08:46.231Z,3.00
2022-09-03T08:11:16.069Z,3.00
2022-09-03T08:13:45.788Z,2.60
2022-09-03T08:16:14.294Z,2.90
2022-09-03T08:18:41.151Z,3.40
2022-09-03T08:21:14.131Z,3.80
2022-09-03T08:23:42.846Z,2.70
2022-09-03T08:26:10.925Z,3.20
2022-09-03T08:28:38.815Z,2.40
2022-09-03T08:31:18.351Z,2.40
2022-09-03T08:33:47.927Z,2.60
2022-09-03T08:36:19.287Z,5.50
2022-09-03T08:38:46.995Z,4.00
2022-09-03T08:41:21.471Z,2.80
2022-09-03T08:43:58.291Z,2.30
2022-09-03T08:46:39.082Z,1.60
2022-09-03T08:49:11.788Z,2.20
2022-09-03T08:51:40.475Z,4.00
2022-09-03T08:54:11.447Z,3.80
2022-09-03T08:56:41.991Z,9.90
2022-09-03T08:59:10.161Z,3.20
2022-09-03T09:02:00.504Z,4.80
2022-09-03T09:04:35.165Z,3.50
2022-09-03T09:07:11.387Z,4.80
2022-09-03T09:09:39.877Z,2.80
2022-09-03T09:12:41.379Z,2.20
2022-09-03T09:15:34.565Z,2.40
2022-09-03T09:18:03.129Z,3.10
2022-09-03T09:20:50.282Z,2.60
2022-09-03T09:23:27.233Z,3.70
2022-09-03T09:25:57.840Z,3.60
2022-09-03T09:28:31.356Z,3.10
2022-09-03T09:33:25.695Z,3.00
2022-09-03T09:35:52.610Z,3.60
2022-09-03T09:38:33.154Z,3.40
2022-09-03T09:41:16.901Z,2.90
2022-09-03T09:43:44.505Z,3.80
2022-09-03T09:46:15.142Z,2.90
2022-09-03T09:48:50.341Z,4.30
2022-09-03T09:51:28.336Z,4.60
2022-09-03T09:54:12.661Z,2.60
2022-09-03T09:56:42.293Z,3.20
2022-09-03T09:59:11.494Z,3.50
2022-09-03T10:01:41.240Z,2.90
2022-09-03T10:04:11.869Z,3.30
2022-09-03T10:06:54.915Z,3.10
2022-09-03T10:09:31.138Z,3.30
2022-09-03T10:12:05.722Z,2.50
2022-09-03T10:14:39.887Z,2.40
2022-09-03T10:17:19.895Z,2.50
2022-09-03T10:20:34.214Z,1.90
2022-09-03T10:23:04.943Z,2.60
2022-09-03T10:25:56.469Z,3.30
2022-09-03T10:28:26.950Z,2.30
2022-09-03T10:30:58.082Z,3.60
2022-09-03T10:33:33.578Z,4.20
2022-09-03T10:36:13.637Z,2.70
2022-09-03T10:38:44.026Z,4.60
2022-09-03T10:41:20.288Z,3.30
2022-09-03T10:44:18.940Z,5.20
2022-09-03T10:47:03.064Z,2.80
2022-09-03T10:49:35.721Z,4.40
2022-09-03T10:52:12.558Z,3.90
2022-09-03T10:54:41.038Z,3.40
2022-09-03T10:57:43.578Z,4.00
2022-09-03T11:00:13.237Z,3.90
2022-09-03T11:02:55.953Z,4.80
2022-09-03T11:05:38.660Z,3.80
2022-09-03T11:08:09.817Z,3.60
2022-09-03T11:10:44.316Z,3.10
2022-09-03T11:13:22.150Z,5.60
2022-09-03T11:15:54.089Z,5.50
2022-09-03T11:18:35.179Z,4.60
2022-09-03T11:21:11.867Z,4.50
2022-09-03T11:23:45.395Z,5.60
2022-09-03T11:26:17.274Z,3.40
2022-09-03T11:29:06.075Z,5.20
2022-09-03T11:31:38.293Z,5.50
2022-09-03T11:34:14.134Z,6.60
2022-09-03T11:36:50.667Z,5.40
2022-09-03T11:39:35.650Z,4.10
2022-09-03T11:42:10.736Z,4.50
2022-09-03T11:44:51.037Z,3.90
2022-09-03T11:47:20.580Z,4.40
2022-09-03T11:49:51.311Z,4.00
2022-09-03T11:52:33.782Z,4.60
2022-09-03T11:55:00.677Z,4.00
2022-09-03T11:57:29.885Z,5.30
2022-09-03T12:00:14.921Z,6.60
2022-09-03T12:02:48.673Z,3.10
2022-09-03T12:08:08.179Z,3.60
2022-09-03T12:11:09.920Z,4.40
2022-09-03T12:13:51.060Z,4.60
2022-09-03T12:16:32.266Z,4.40
2022-09-03T12:19:12.578Z,4.60
2022-09-03T12:21:41.122Z,4.00
2022-09-03T12:24:13.431Z,6.60
2022-09-03T12:26:42.926Z,5.20
2022-09-03T12:29:27.700Z,3.40
2022-09-03T12:31:56.638Z,3.50
2022-09-03T12:34:25.937Z,3.20
2022-09-03T12:36:55.567Z,2.40
2022-09-03T12:42:20.071Z,6.60
2022-09-03T12:44:46.931Z,6.40
2022-09-03T12:47:37.396Z,3.50
2022-09-03T12:50:17.059Z,2.40
2022-09-03T12:52:48.407Z,3.90
2022-09-03T12:55:32.240Z,4.60
2022-09-03T13:00:47.088Z,2.70
2022-09-03T13:03:24.822Z,2.80
2022-09-03T13:05:57.345Z,3.70
2022-09-03T13:08:28.125Z,3.20
2022-09-03T13:10:57.632Z,3.30
2022-09-03T13:13:27.953Z,3.00
2022-09-03T13:16:10.720Z,2.60
2022-09-03T13:18:54.988Z,3.50
2022-09-03T13:21:32.501Z,2.60
2022-09-03T13:24:31.892Z,4.50
2022-09-03T13:27:18.828Z,3.00
2022-09-03T13:29:46.289Z,3.70
2022-09-03T13:32:21.130Z,2.80
2022-09-03T13:35:11.788Z,3.10
2022-09-03T13:37:46.470Z,3.60
2022-09-03T13:40:42.171Z,4.80
2022-09-03T13:43:28.345Z,3.60
2022-09-03T13:46:02.478Z,4.30
2022-09-03T13:48:55.678Z,2.40
2022-09-03T13:51:31.786Z,3.50
2022-09-03T13:54:06.907Z,3.50
2022-09-03T13:56:49.780Z,3.50
2022-09-03T13:59:29.358Z,4.40
2022-09-03T14:02:15.835Z,4.00
2022-09-03T14:04:58.857Z,3.30
2022-09-03T14:07:39.107Z,2.60
2022-09-03T14:10:21.762Z,2.80
2022-09-03T14:13:04.197Z,3.40
2022-09-03T14:15:45.483Z,3.40
2022-09-03T14:18:23.884Z,4.20
2022-09-03T14:21:22.470Z,3.80
2022-09-03T14:24:01.062Z,3.40
2022-09-03T14:26:39.511Z,3.90
2022-09-03T14:29:16.521Z,8.00
2022-09-03T14:32:06.723Z,3.10
2022-09-03T14:34:41.305Z,4.80
2022-09-03T14:37:09.790Z,2.60
2022-09-03T14:39:39.345Z,8.10
2022-09-03T14:42:07.853Z,6.10
2022-09-03T14:44:51.034Z,3.90
2022-09-03T14:47:36.723Z,3.20
2022-09-03T14:50:11.500Z,2.70
2022-09-03T14:52:57.772Z,3.60
2022-09-03T14:55:43.909Z,4.90
2022-09-03T14:58:42.402Z,5.40
2022-09-03T15:01:37.582Z,5.30
2022-09-03T15:04:18.388Z,4.00
2022-09-03T15:07:12.370Z,8.40
2022-09-03T15:09:45.306Z,5.30
2022-09-03T15:12:13.848Z,3.60
2022-09-03T15:14:47.906Z,5.90
2022-09-03T15:17:15.628Z,6.10
2022-09-03T15:19:51.474Z,7.50
2022-09-03T15:22:35.499Z,5.70
2022-09-03T15:27:53.263Z,4.00
2022-09-03T15:30:21.070Z,4.80
2022-09-03T15:32:49.764Z,4.00
2022-09-03T15:35:29.429Z,6.10
2022-09-03T15:38:00.295Z,5.10
2022-09-03T15:40:31.997Z,3.90
2022-09-03T15:43:09.224Z,4.40
2022-09-03T15:45:39.835Z,4.10
2022-09-03T15:48:26.990Z,5.20
2022-09-03T15:51:10.108Z,5.70
2022-09-03T15:53:46.269Z,4.80
2022-09-03T15:56:23.697Z,4.70
2022-09-03T15:58:58.976Z,5.80
2022-09-03T16:01:41.062Z,5.70
2022-09-03T16:04:36.554Z,5.40
2022-09-03T16:07:20.382Z,4.90
2022-09-03T16:10:25.954Z,4.60
2022-09-03T16:13:25.522Z,8.40
2022-09-03T16:16:11.570Z,6.90
2022-09-03T16:18:47.884Z,4.80
2022-09-03T16:21:32.011Z,4.50
2022-09-03T16:24:04.058Z,8.80
2022-09-03T16:26:50.049Z,6.10
2022-09-03T16:29:19.474Z,3.80
2022-09-03T16:32:02.154Z,9.50
2022-09-03T16:34:50.416Z,4.00
2022-09-03T16:37:26.931Z,7.10
2022-09-03T16:40:17.548Z,6.60
2022-09-03T16:42:44.913Z,4.30
2022-09-03T16:45:27.599Z,4.70
2022-09-03T16:48:25.699Z,4.00
2022-09-03T16:51:14.107Z,5.10
2022-09-03T16:54:09.228Z,4.40
2022-09-03T16:56:52.065Z,6.00
2022-09-03T16:59:35.917Z,10.10
2022-09-03T17:02:39.860Z,4.20
2022-09-03T17:05:39.927Z,4.00
2022-09-03T17:08:30.889Z,5.20
2022-09-03T17:11:29.067Z,5.80
2022-09-03T17:14:02.453Z,3.80
2022-09-03T17:16:34.920Z,6.10
2022-09-03T17:19:10.891Z,3.30
2022-09-03T17:21:46.345Z,14.50
2022-09-03T17:24:33.539Z,6.40
2022-09-03T17:27:26.632Z,5.70
2022-09-03T17:30:10.845Z,5.90
2022-09-03T17:35:38.097Z,3.80
2022-09-03T17:38:06.907Z,4.80
2022-09-03T17:40:44.525Z,6.50
2022-09-03T17:43:24.931Z,6.00
2022-09-03T17:46:05.505Z,6.80
2022-09-03T17:48:34.221Z,6.20
2022-09-03T17:51:10.481Z,5.40
2022-09-03T17:53:55.302Z,5.10
2022-09-03T17:56:30.029Z,5.40
2022-09-03T17:59:15.992Z,5.40
2022-09-03T18:01:53.014Z,4.50
2022-09-03T18:04:39.375Z,4.10
2022-09-03T18:07:10.384Z,4.60
2022-09-03T18:10:02.445Z,6.10
2022-09-03T18:13:03.694Z,5.40
2022-09-03T18:15:43.567Z,6.60
2022-09-03T18:18:19.262Z,5.90
2022-09-03T18:21:26.637Z,5.60
2022-09-03T18:24:21.634Z,7.80
2022-09-03T18:27:14.533Z,6.00
2022-09-03T18:30:07.733Z,6.20
2022-09-03T18:32:50.357Z,7.20
2022-09-03T18:35:33.380Z,7.60
2022-09-03T18:38:19.570Z,8.60
2022-09-03T18:41:21.959Z,7.10
2022-09-03T18:44:08.276Z,10.10
2022-09-03T18:48:02.946Z,7.70
2022-09-03T18:50:44.101Z,7.90
2022-09-03T18:53:40.248Z,11.30
2022-09-03T18:56:35.835Z,15.10
2022-09-03T18:59:53.944Z,16.00
2022-09-03T19:03:01.966Z,17.00
2022-09-03T19:05:56.448Z,12.50
2022-09-03T19:08:48.006Z,17.40
2022-09-03T19:11:41.075Z,18.40
2022-09-03T19:14:41.794Z,17.10
2022-09-03T19:17:41.530Z,12.60
2022-09-03T19:20:35.019Z,10.20
2022-09-03T19:23:18.977Z,10.40
2022-09-03T19:26:01.713Z,9.90
2022-09-03T19:28:47.130Z,13.20
2022-09-03T19:31:43.741Z,10.90
2022-09-03T19:35:01.911Z,14.00
2022-09-03T19:38:01.607Z,13.70
2022-09-03T19:41:01.343Z,18.50
2022-09-03T19:44:01.046Z,15.10
2022-09-03T19:46:49.958Z,16.60
2022-09-03T19:49:48.984Z,13.80
2022-09-03T19:53:03.256Z,11.00
2022-09-03T19:55:51.150Z,17.00
2022-09-03T19:58:43.491Z,14.90
2022-09-03T20:01:28.183Z,15.30
2022-09-03T20:04:12.936Z,14.70
2022-09-03T20:06:55.774Z,13.60
2022-09-03T20:09:45.788Z,13.00
2022-09-03T20:12:16.498Z,17.30
2022-09-03T20:14:43.339Z,17.60
2022-09-03T20:17:13.075Z,15.10
2022-09-03T20:19:41.654Z,15.80
2022-09-03T20:22:29.262Z,24.90
2022-09-03T20:25:07.452Z,24.90
2022-09-03T20:27:42.268Z,35.60
2022-09-03T20:30:16.231Z,44.30
2022-09-03T20:33:14.327Z,40.30
2022-09-03T20:36:13.525Z,64.80
2022-09-03T20:38:58.927Z,84.80
2022-09-03T20:41:48.839Z,14.00
2022-09-03T20:44:34.999Z,24.80
2022-09-03T20:47:33.526Z,12.60
2022-09-03T20:50:10.424Z,7.20
2022-09-03T20:52:56.863Z,6.50
2022-09-03T20:55:28.219Z,9.20
2022-09-03T20:58:11.856Z,9.60
2022-09-03T21:00:53.751Z,11.00
2022-09-03T21:03:25.572Z,10.10
2022-09-03T21:06:14.668Z,47.40
2022-09-03T21:08:48.803Z,134.40
2022-09-03T21:11:29.646Z,39.50
2022-09-03T21:14:25.030Z,11.70
2022-09-03T21:17:09.153Z,10.60
2022-09-03T21:19:46.343Z,8.40
2022-09-03T21:22:44.751Z,5.50
2022-09-03T21:25:16.957Z,8.20
2022-09-03T21:27:51.180Z,4.80
2022-09-03T21:30:20.525Z,10.20
2022-09-03T21:33:06.553Z,7.10
2022-09-03T21:35:38.819Z,6.60
2022-09-03T21:38:08.726Z,11.60
2022-09-03T21:40:41.905Z,8.60
2022-09-03T21:43:21.990Z,9.30
2022-09-03T21:46:02.038Z,4.60
2022-09-03T21:48:35.810Z,6.30
2022-09-03T21:51:14.410Z,7.90
2022-09-03T21:53:48.361Z,5.50
2022-09-03T21:56:25.574Z,5.50
2022-09-03T21:59:11.873Z,5.50
2022-09-03T22:02:05.363Z,6.30
2022-09-03T22:04:32.999Z,5.40
2022-09-03T22:07:31.452Z,5.80
2022-09-03T22:10:26.262Z,6.00
2022-09-03T22:13:14.753Z,5.20
2022-09-03T22:15:51.789Z,4.70
2022-09-03T22:18:28.501Z,4.40
2022-09-03T22:21:01.672Z,5.50
2022-09-03T22:23:44.435Z,6.00
2022-09-03T22:26:22.717Z,4.50
2022-09-03T22:29:09.378Z,5.40
2022-09-03T22:31:36.782Z,5.00
2022-09-03T22:34:15.081Z,6.70
2022-09-03T22:36:50.588Z,5.60
2022-09-03T22:39:39.167Z,6.00
2022-09-03T22:42:13.800Z,5.30
2022-09-03T22:44:56.629Z,3.70
2022-09-03T22:47:47.684Z,3.80
2022-09-03T22:50:35.456Z,4.90
2022-09-03T22:53:25.494Z,3.80
2022-09-03T22:55:59.958Z,5.30
2022-09-03T22:58:31.214Z,3.70
2022-09-03T23:01:07.878Z,3.90
2022-09-03T23:03:42.395Z,7.50
2022-09-03T23:06:21.579Z,4.40
2022-09-03T23:08:57.188Z,5.40
2022-09-03T23:11:34.800Z,5.50
2022-09-03T23:14:08.291Z,4.00
2022-09-03T23:17:00.629Z,4.30
2022-09-03T23:19:41.099Z,6.10
2022-09-03T23:22:13.364Z,3.80
2022-09-03T23:24:45.086Z,4.70
2022-09-03T23:27:21.078Z,3.50
2022-09-03T23:29:54.377Z,4.50
2022-09-03T23:32:22.096Z,3.60
2022-09-03T23:34:49.220Z,4.90
2022-09-03T23:37:35.439Z,6.00
2022-09-03T23:40:10.469Z,4.60
2022-09-03T23:42:54.015Z,4.80
2022-09-03T23:45:30.146Z,4.30
2022-09-03T23:48:30.062Z,5.00
2022-09-03T23:51:06.587Z,4.60
2022-09-03T23:53:49.426Z,5.10
2022-09-03T23:56:41.042Z,4.80
2022-09-03T23:59:32.613Z,5.70
